Terminal Aerodrome Forecast
Issued by NWS Mobile, AL

Current Version | Previous Version | Text Only | Print | Product List | Glossary On
Versions: 1 2 3 4 5 6 7 8 9 10 11 12 13 14 15 16 17
000
FTUS44 KMOB 161819 AAB
TAFMOB
TAF AMD
KMOB 161819Z 1618/1718 VRB03KT P6SM VCTS SCT030CB BKN060 BKN170
      TEMPO 1618/1621 1SM TSRA BKN020CB
     FM170000 VRB03KT P6SM SCT030 BKN150
     FM171500 28005KT P6SM SCT030=

USA.gov is the U.S. government's official web portal to all federal, state and local government web resources and services.